Time;durP1;ratioP1;P1;durP2;ratioP2;P2;SDS_P1;SDS_P2;PMS_P1;PMS_P2;Temp;Humidity;BMP_temperature;BMP_pressure;BME280_temperature;BME280_humidity;BME280_pressure;Samples;Min_cycle;Max_cycle;Signal;HPM_P1;HPM_P2
2022/01/11 00:00:09;;;;;;;3.40;3.17;;;2.50;99.90;;;;;;4972729;28;20275;-88
2022/01/11 00:02:38;;;;;;;5.03;4.50;;;2.50;99.90;;;;;;5005531;28;20216;-88
2022/01/11 00:05:04;;;;;;;7.57;4.47;;;2.50;99.90;;;;;;4957960;28;20231;-88
2022/01/11 00:07:32;;;;;;;4.73;4.30;;;2.50;99.90;;;;;;4956474;28;20195;-88
2022/01/11 00:09:58;;;;;;;5.47;3.63;;;2.50;99.90;;;;;;4957928;28;20196;-88
2022/01/11 00:12:24;;;;;;;7.70;4.30;;;2.50;99.90;;;;;;4972893;28;21146;-88
2022/01/11 00:14:49;;;;;;;6.73;4.13;;;2.50;99.90;;;;;;4973158;28;20287;-88
2022/01/11 00:17:15;;;;;;;4.10;3.77;;;2.50;99.90;;;;;;4957374;28;20370;-88
2022/01/11 00:19:41;;;;;;;6.60;4.90;;;2.50;99.90;;;;;;4956814;28;20220;-88
2022/01/11 00:22:15;;;;;;;14.47;5.20;;;2.40;99.90;;;;;;4957156;28;20187;-88
2022/01/11 00:24:41;;;;;;;5.63;4.67;;;2.50;99.90;;;;;;4958174;28;20239;-88
2022/01/11 00:27:09;;;;;;;3.73;3.43;;;2.50;99.90;;;;;;4971382;28;20212;-88
2022/01/11 00:29:40;;;;;;;5.00;2.57;;;2.50;99.90;;;;;;4977612;28;20593;-87
2022/01/11 00:32:11;;;;;;;4.77;4.37;;;2.50;99.90;;;;;;4979554;28;20227;-88
2022/01/11 00:34:40;;;;;;;3.63;2.90;;;2.40;99.90;;;;;;4946882;28;20223;-89
2022/01/11 00:37:07;;;;;;;6.13;4.87;;;2.40;99.90;;;;;;4962848;28;20184;-88
2022/01/11 00:39:33;;;;;;;4.07;3.43;;;2.50;99.90;;;;;;4963405;28;20224;-87
2022/01/11 00:41:59;;;;;;;3.97;3.70;;;2.50;99.90;;;;;;4961643;28;20212;-87
2022/01/11 00:44:25;;;;;;;6.03;4.00;;;2.60;99.90;;;;;;4945931;28;20212;-88
2022/01/11 00:46:51;;;;;;;4.37;3.77;;;2.50;99.90;;;;;;4962611;28;20224;-88
2022/01/11 00:49:17;;;;;;;4.53;4.13;;;2.50;99.90;;;;;;4946776;28;20239;-88
2022/01/11 00:51:43;;;;;;;4.20;2.70;;;2.40;99.90;;;;;;4963724;28;20625;-88
2022/01/11 00:54:08;;;;;;;5.63;4.27;;;2.40;99.90;;;;;;4962127;28;20728;-86
2022/01/11 00:56:34;;;;;;;3.73;3.43;;;2.50;99.90;;;;;;4961685;28;20972;-87
2022/01/11 00:59:00;;;;;;;5.40;4.90;;;2.50;99.90;;;;;;4945403;28;20220;-88
2022/01/11 01:01:27;;;;;;;4.90;4.33;;;2.40;99.90;;;;;;4962399;28;20224;-88
2022/01/11 01:03:54;;;;;;;4.77;4.47;;;2.50;99.90;;;;;;4962778;28;20231;-88
2022/01/11 01:06:20;;;;;;;4.40;3.73;;;2.50;99.90;;;;;;4978801;28;20243;-88
2022/01/11 01:08:46;;;;;;;6.40;3.90;;;2.50;99.90;;;;;;4945502;28;20227;-88
2022/01/11 01:11:12;;;;;;;3.70;3.30;;;2.50;99.90;;;;;;4945081;28;20724;-88
2022/01/11 01:13:37;;;;;;;3.40;3.10;;;2.50;99.90;;;;;;4977343;28;20251;-88
2022/01/11 01:16:04;;;;;;;2.70;2.60;;;2.60;99.90;;;;;;4977732;28;20665;-89
2022/01/11 01:18:32;;;;;;;3.07;2.33;;;2.50;99.90;;;;;;4946663;28;20216;-88
2022/01/11 01:20:59;;;;;;;4.27;4.00;;;2.50;99.90;;;;;;4976428;28;20274;-89
2022/01/11 01:23:25;;;;;;;4.00;3.23;;;2.50;99.90;;;;;;4962808;28;20225;-88
2022/01/11 01:25:52;;;;;;;3.27;3.00;;;2.60;99.90;;;;;;4978140;28;20354;-88
2022/01/11 01:28:18;;;;;;;2.57;2.37;;;2.60;99.90;;;;;;4961648;28;20201;-88
2022/01/11 01:30:45;;;;;;;4.23;3.60;;;2.60;99.90;;;;;;4978160;28;20345;-88
2022/01/11 01:33:10;;;;;;;8.13;4.87;;;2.60;99.90;;;;;;4961490;28;20216;-88
2022/01/11 01:35:39;;;;;;;2.97;2.77;;;2.70;99.90;;;;;;4961316;28;20216;-87
2022/01/11 01:38:09;;;;;;;2.47;2.23;;;2.70;99.90;;;;;;4976930;28;20295;-88
2022/01/11 01:40:41;;;;;;;8.50;2.20;;;2.70;99.90;;;;;;4991733;28;20231;-88
2022/01/11 01:43:09;;;;;;;3.40;3.20;;;2.70;99.90;;;;;;4995399;28;21752;-88
2022/01/11 01:45:37;;;;;;;4.57;3.13;;;2.70;99.90;;;;;;4963102;28;20647;-88
2022/01/11 01:48:03;;;;;;;3.97;3.67;;;2.70;99.90;;;;;;4962606;28;20297;-88
2022/01/11 01:50:29;;;;;;;2.83;2.47;;;2.70;99.90;;;;;;4977968;28;20220;-88
2022/01/11 01:52:58;;;;;;;3.63;3.33;;;2.70;99.90;;;;;;4960132;28;20688;-88
2022/01/11 01:55:25;;;;;;;3.03;2.83;;;2.60;99.90;;;;;;4992506;28;20192;-88
2022/01/11 01:57:51;;;;;;;3.17;2.67;;;2.70;99.90;;;;;;4978167;28;20228;-88
2022/01/11 02:00:19;;;;;;;4.33;2.87;;;2.70;99.90;;;;;;4960330;28;20220;-88
2022/01/11 02:02:45;;;;;;;3.13;2.93;;;2.60;99.90;;;;;;4944760;28;20303;-88
2022/01/11 02:05:10;;;;;;;6.80;2.87;;;2.50;99.90;;;;;;4944204;28;20768;-88
2022/01/11 02:07:37;;;;;;;4.53;3.87;;;2.50;99.90;;;;;;4977354;28;20208;-88
2022/01/11 02:10:05;;;;;;;2.23;2.13;;;2.40;99.90;;;;;;4962205;28;20184;-88
2022/01/11 02:12:31;;;;;;;3.63;2.93;;;2.40;99.90;;;;;;4976570;28;20212;-88
2022/01/11 02:14:57;;;;;;;4.70;3.50;;;2.40;99.90;;;;;;4962246;28;20262;-88
2022/01/11 02:17:29;;;;;;;8.47;4.10;;;2.40;99.90;;;;;;4943637;28;20211;-88
2022/01/11 02:19:55;;;;;;;4.77;3.50;;;2.30;99.90;;;;;;4976506;28;20267;-88
2022/01/11 02:22:25;;;;;;;8.60;3.90;;;2.30;99.90;;;;;;4960181;28;20248;-88
2022/01/11 02:24:52;;;;;;;8.77;4.57;;;2.40;99.90;;;;;;4977812;28;20227;-88
2022/01/11 02:27:18;;;;;;;3.67;3.37;;;2.40;99.90;;;;;;4984246;28;20279;-88
2022/01/11 02:29:44;;;;;;;6.97;3.67;;;2.40;99.90;;;;;;4959769;28;20221;-88
2022/01/11 02:32:10;;;;;;;4.27;2.83;;;2.40;99.90;;;;;;4959929;28;20218;-88
2022/01/11 02:34:37;;;;;;;4.53;3.70;;;2.40;99.90;;;;;;4976121;28;20278;-88
2022/01/11 02:37:04;;;;;;;4.33;4.03;;;2.40;99.90;;;;;;4960996;28;20188;-88
2022/01/11 02:39:30;;;;;;;4.47;2.83;;;2.40;99.90;;;;;;4984794;28;20219;-88
2022/01/11 02:41:57;;;;;;;4.97;3.17;;;2.50;99.90;;;;;;4960310;28;20208;-88
2022/01/11 02:44:23;;;;;;;8.53;6.03;;;2.40;99.90;;;;;;4976949;28;20251;-88
2022/01/11 02:46:50;;;;;;;5.17;3.87;;;2.40;99.90;;;;;;4976370;28;20204;-88
2022/01/11 02:49:16;;;;;;;4.43;3.50;;;2.40;99.90;;;;;;4976541;28;20223;-88
2022/01/11 02:51:42;;;;;;;1.93;1.83;;;2.40;99.90;;;;;;4959593;28;20716;-88
2022/01/11 02:54:08;;;;;;;2.70;2.17;;;2.40;99.90;;;;;;4959574;28;20734;-88
2022/01/11 02:56:34;;;;;;;5.70;3.33;;;2.40;99.90;;;;;;4943857;28;20290;-88
2022/01/11 02:59:01;;;;;;;6.90;4.07;;;2.40;99.90;;;;;;4975883;28;20212;-88
2022/01/11 03:01:27;;;;;;;1.83;1.73;;;2.50;99.90;;;;;;4975069;28;20199;-88
2022/01/11 03:03:53;;;;;;;5.97;3.43;;;2.50;99.90;;;;;;4945617;28;20275;-88
2022/01/11 03:06:18;;;;;;;4.00;3.77;;;2.50;99.90;;;;;;4960654;28;20303;-88
2022/01/11 03:08:46;;;;;;;4.50;2.27;;;2.50;99.90;;;;;;4944161;28;20221;-88
2022/01/11 03:11:18;;;;;;;2.57;2.47;;;2.50;99.90;;;;;;4978532;28;20218;-88
2022/01/11 03:13:44;;;;;;;1.73;1.73;;;2.50;99.90;;;;;;4992647;28;20279;-88
2022/01/11 03:16:16;;;;;;;3.70;3.03;;;2.50;99.90;;;;;;4977500;28;20645;-87
2022/01/11 03:18:43;;;;;;;3.53;3.33;;;2.50;99.90;;;;;;4959996;28;20220;-88
2022/01/11 03:21:09;;;;;;;3.50;3.13;;;2.50;99.90;;;;;;4975092;28;20216;-88
2022/01/11 03:23:37;;;;;;;4.47;3.03;;;2.50;99.90;;;;;;4942760;28;20235;-87
2022/01/11 03:26:03;;;;;;;3.60;3.40;;;2.50;99.90;;;;;;4958924;28;20722;-87
2022/01/11 03:28:30;;;;;;;3.67;3.37;;;2.50;99.90;;;;;;4943456;28;20276;-87
2022/01/11 03:30:56;;;;;;;3.87;3.10;;;2.50;99.90;;;;;;4992151;28;20317;-87
2022/01/11 03:33:22;;;;;;;4.20;3.87;;;2.60;99.90;;;;;;4960253;28;20226;-88
2022/01/11 03:35:49;;;;;;;2.47;1.90;;;2.60;99.90;;;;;;4961456;28;20208;-88
2022/01/11 03:38:16;;;;;;;3.40;3.20;;;2.50;99.90;;;;;;4984509;28;20215;-87
2022/01/11 03:40:43;;;;;;;3.63;3.37;;;2.50;99.90;;;;;;4977169;28;20217;-87
2022/01/11 03:43:09;;;;;;;3.67;3.37;;;2.40;99.90;;;;;;4979092;28;20195;-87
2022/01/11 03:45:36;;;;;;;7.90;3.70;;;2.40;99.90;;;;;;4979995;28;20279;-88
2022/01/11 03:48:03;;;;;;;3.30;3.10;;;2.40;99.90;;;;;;4987401;28;20654;-88
2022/01/11 03:50:30;;;;;;;3.67;3.00;;;2.50;99.90;;;;;;4987923;28;20220;-88
2022/01/11 03:53:06;;;;;;;5.07;2.07;;;2.40;99.90;;;;;;4964139;28;20770;-88
2022/01/11 03:55:46;;;;;;;1.30;1.23;;;2.40;99.90;;;;;;4949274;28;20620;-88
2022/01/11 03:58:13;;;;;;;1.30;1.20;;;2.40;99.90;;;;;;4964908;28;20259;-88
2022/01/11 04:00:39;;;;;;;10.03;5.63;;;2.30;99.90;;;;;;4961043;28;20224;-87
2022/01/11 04:03:05;;;;;;;3.20;3.00;;;2.40;99.90;;;;;;4963789;28;20215;-87
2022/01/11 04:05:32;;;;;;;2.70;2.50;;;2.40;99.90;;;;;;4986923;28;20243;-88
2022/01/11 04:07:58;;;;;;;2.63;2.50;;;2.30;99.90;;;;;;4964053;28;20673;-87
2022/01/11 04:10:24;;;;;;;4.53;3.10;;;2.30;99.90;;;;;;4979349;28;20204;-87
2022/01/11 04:12:50;;;;;;;4.13;3.83;;;2.30;99.90;;;;;;4979999;28;20191;-88
2022/01/11 04:15:17;;;;;;;6.40;3.53;;;2.30;99.90;;;;;;4947910;28;21146;-88
2022/01/11 04:17:42;;;;;;;4.60;4.23;;;2.40;99.90;;;;;;4978476;28;20295;-87
2022/01/11 04:20:09;;;;;;;6.90;4.50;;;2.40;99.90;;;;;;4948395;28;20650;-89
2022/01/11 04:22:35;;;;;;;3.60;2.77;;;2.40;99.90;;;;;;4979363;28;20587;-87
2022/01/11 04:25:01;;;;;;;3.40;3.13;;;2.40;99.90;;;;;;4962842;28;20209;-88
2022/01/11 04:27:27;;;;;;;2.87;2.67;;;2.30;99.90;;;;;;4962087;28;20216;-88
2022/01/11 04:29:52;;;;;;;4.77;3.10;;;2.40;99.90;;;;;;4962010;28;20262;-88
2022/01/11 04:32:18;;;;;;;2.77;2.50;;;2.40;99.90;;;;;;4945528;28;20270;-88
2022/01/11 04:34:44;;;;;;;3.63;2.13;;;2.40;99.90;;;;;;4963115;28;20246;-88
2022/01/11 04:37:09;;;;;;;4.23;3.83;;;2.50;99.90;;;;;;4947626;28;20211;-88
2022/01/11 04:39:35;;;;;;;5.97;3.90;;;2.50;99.90;;;;;;4945181;28;20302;-88
2022/01/11 04:42:01;;;;;;;1.30;1.30;;;2.50;99.90;;;;;;4963128;28;20212;-88
2022/01/11 04:44:27;;;;;;;4.20;3.90;;;2.50;99.90;;;;;;4964999;28;20247;-88
2022/01/11 04:46:53;;;;;;;5.27;3.63;;;2.50;99.90;;;;;;4963487;28;20243;-88
2022/01/11 04:49:19;;;;;;;4.67;3.57;;;2.50;99.90;;;;;;4963617;28;20590;-88
2022/01/11 04:51:46;;;;;;;5.27;3.03;;;2.50;99.90;;;;;;4964600;28;20200;-88
2022/01/11 04:54:12;;;;;;;1.60;1.33;;;2.50;99.90;;;;;;4946814;28;20242;-88
2022/01/11 04:56:37;;;;;;;2.90;2.70;;;2.50;99.90;;;;;;4962118;28;20220;-88
2022/01/11 04:59:03;;;;;;;2.13;1.50;;;2.60;99.90;;;;;;4962467;28;20759;-88
2022/01/11 05:01:30;;;;;;;2.37;2.17;;;2.60;99.90;;;;;;4961293;28;20206;-88
2022/01/11 05:03:56;;;;;;;12.20;3.50;;;2.60;99.90;;;;;;4961721;28;20721;-88
2022/01/11 05:06:22;;;;;;;2.80;2.60;;;2.60;99.90;;;;;;4963156;28;20235;-87
2022/01/11 05:08:48;;;;;;;3.30;1.87;;;2.60;99.90;;;;;;4978426;28;20208;-88
2022/01/11 05:11:15;;;;;;;3.60;2.63;;;2.60;99.90;;;;;;4945194;28;20217;-88
2022/01/11 05:13:41;;;;;;;3.27;2.97;;;2.70;99.90;;;;;;4978660;28;20277;-88
2022/01/11 05:16:08;;;;;;;3.17;2.97;;;2.60;99.90;;;;;;4978817;28;20201;-88
2022/01/11 05:18:36;;;;;;;2.73;2.40;;;2.60;99.90;;;;;;4963391;28;20800;-88
2022/01/11 05:21:03;;;;;;;12.00;3.83;;;2.60;99.90;;;;;;4978678;28;20711;-88
2022/01/11 05:23:29;;;;;;;6.40;4.30;;;2.60;99.90;;;;;;4963181;28;20253;-88
2022/01/11 05:25:55;;;;;;;2.43;2.23;;;2.70;99.90;;;;;;4963687;28;20227;-88
2022/01/11 05:28:21;;;;;;;4.43;1.73;;;2.70;99.90;;;;;;4986765;28;20649;-88
2022/01/11 05:30:47;;;;;;;3.17;2.43;;;2.60;99.90;;;;;;4978259;28;20202;-89
2022/01/11 05:33:13;;;;;;;3.57;3.27;;;2.60;99.90;;;;;;4962374;28;20331;-88
2022/01/11 05:35:39;;;;;;;4.70;3.93;;;2.70;99.90;;;;;;4945592;28;20217;-88
2022/01/11 05:38:04;;;;;;;10.03;3.60;;;2.70;99.90;;;;;;4946529;28;20213;-88
2022/01/11 05:40:30;;;;;;;2.77;2.57;;;2.70;99.90;;;;;;4945121;28;20638;-88
2022/01/11 05:42:56;;;;;;;7.50;2.23;;;2.70;99.90;;;;;;4962322;28;20239;-88
2022/01/11 05:45:22;;;;;;;2.13;2.03;;;2.70;99.90;;;;;;4945588;28;20232;-88
2022/01/11 05:47:52;;;;;;;3.67;3.27;;;2.70;99.90;;;;;;4945062;28;20327;-88
2022/01/11 05:50:18;;;;;;;2.33;2.17;;;2.70;99.90;;;;;;4960458;28;20702;-88
2022/01/11 05:52:44;;;;;;;2.40;2.23;;;2.70;99.90;;;;;;4986136;28;20696;-88
2022/01/11 05:55:11;;;;;;;2.67;2.47;;;2.70;99.90;;;;;;4946957;28;20199;-88
2022/01/11 05:57:37;;;;;;;3.20;2.60;;;2.70;99.90;;;;;;4987902;28;20223;-88
2022/01/11 06:00:07;;;;;;;3.57;2.63;;;2.70;99.90;;;;;;4971497;28;20219;-88
2022/01/11 06:02:33;;;;;;;8.27;2.67;;;2.70;99.90;;;;;;4987481;28;20232;-87
2022/01/11 06:04:58;;;;;;;3.03;2.43;;;2.70;99.90;;;;;;4971347;28;20306;-88
2022/01/11 06:07:24;;;;;;;4.37;1.93;;;2.60;99.90;;;;;;4953858;28;20196;-88
2022/01/11 06:09:50;;;;;;;2.73;2.53;;;2.60;99.90;;;;;;4954864;28;20180;-87
2022/01/11 06:12:16;;;;;;;5.60;4.20;;;2.70;99.90;;;;;;4970961;28;20220;-88
2022/01/11 06:14:41;;;;;;;7.03;4.90;;;2.60;99.90;;;;;;4970695;28;20305;-88
2022/01/11 06:17:07;;;;;;;2.17;2.07;;;2.70;99.90;;;;;;4955174;28;20218;-88
2022/01/11 06:19:34;;;;;;;5.70;2.63;;;2.70;99.90;;;;;;4971963;28;20196;-88
2022/01/11 06:22:00;;;;;;;4.47;3.90;;;2.60;99.90;;;;;;4955935;28;20196;-88
2022/01/11 06:24:26;;;;;;;4.00;3.80;;;2.60;99.90;;;;;;4954450;28;20222;-86
2022/01/11 06:26:52;;;;;;;3.57;3.27;;;2.60;99.90;;;;;;4970485;28;20224;-87
2022/01/11 06:29:18;;;;;;;2.03;1.50;;;2.60;99.90;;;;;;5002473;28;20223;-87
2022/01/11 06:31:44;;;;;;;4.50;4.10;;;2.60;99.90;;;;;;4967545;28;20689;-86
2022/01/11 06:34:10;;;;;;;2.90;2.80;;;2.60;99.90;;;;;;4987617;28;20196;-88
2022/01/11 06:36:36;;;;;;;5.40;4.27;;;2.60;99.90;;;;;;4954250;28;20207;-85
2022/01/11 06:39:03;;;;;;;4.57;3.30;;;2.70;99.90;;;;;;4970506;28;20212;-86
2022/01/11 06:41:30;;;;;;;4.33;3.17;;;2.60;99.90;;;;;;4987184;28;20787;-86
2022/01/11 06:43:55;;;;;;;4.27;3.83;;;2.70;99.90;;;;;;4985585;28;20211;-85
2022/01/11 06:46:23;;;;;;;4.43;4.07;;;2.70;99.90;;;;;;4969876;28;20669;-85
2022/01/11 06:48:51;;;;;;;5.47;4.23;;;2.70;99.90;;;;;;5002218;28;20342;-85
2022/01/11 06:51:18;;;;;;;8.97;6.97;;;2.80;99.90;;;;;;4970169;28;20214;-86
2022/01/11 06:53:44;;;;;;;4.33;3.57;;;2.80;99.90;;;;;;4984268;28;20209;-85
2022/01/11 06:56:10;;;;;;;4.87;4.47;;;2.80;99.90;;;;;;4975865;28;20201;-85
2022/01/11 06:58:37;;;;;;;5.60;4.03;;;2.80;99.90;;;;;;4959309;28;20691;-84
2022/01/11 07:01:04;;;;;;;4.67;4.20;;;2.80;99.90;;;;;;4961302;28;20192;-85
2022/01/11 07:03:30;;;;;;;3.03;2.83;;;2.80;99.90;;;;;;4943549;28;20212;-84
2022/01/11 07:05:55;;;;;;;4.50;4.10;;;2.70;99.90;;;;;;4943899;28;20242;-85
2022/01/11 07:08:22;;;;;;;3.23;2.63;;;2.80;99.90;;;;;;4942878;28;20203;-84
2022/01/11 07:10:48;;;;;;;2.77;2.53;;;2.70;99.90;;;;;;4974260;28;20205;-87
2022/01/11 07:13:13;;;;;;;2.10;1.57;;;2.70;99.90;;;;;;4960148;28;20195;-85
2022/01/11 07:15:39;;;;;;;5.03;4.50;;;2.70;99.90;;;;;;4944403;28;20644;-86
2022/01/11 07:18:09;;;;;;;5.50;4.90;;;2.70;99.90;;;;;;4945695;28;20370;-85
2022/01/11 07:20:37;;;;;;;21.33;3.40;;;2.70;99.90;;;;;;4964503;28;20749;-84
2022/01/11 07:23:03;;;;;;;8.20;3.80;;;2.70;99.90;;;;;;4962981;28;20634;-86
2022/01/11 07:25:32;;;;;;;5.33;4.80;;;2.70;99.90;;;;;;4979377;28;20204;-85
2022/01/11 07:28:02;;;;;;;2.53;1.70;;;2.70;99.90;;;;;;4962990;28;20185;-86
2022/01/11 07:30:28;;;;;;;5.00;4.57;;;2.70;99.90;;;;;;4977667;28;20238;-85
2022/01/11 07:32:54;;;;;;;7.93;3.00;;;2.60;99.90;;;;;;4978894;28;20204;-87
2022/01/11 07:35:20;;;;;;;2.83;2.63;;;2.70;99.90;;;;;;4979274;28;20220;-88
2022/01/11 07:37:46;;;;;;;8.47;3.37;;;2.60;99.90;;;;;;4980685;28;20823;-85
2022/01/11 07:40:12;;;;;;;6.03;4.93;;;2.70;99.90;;;;;;4962154;28;20210;-85
2022/01/11 07:42:38;;;;;;;3.40;2.57;;;2.70;99.90;;;;;;4978900;28;20209;-86
2022/01/11 07:45:04;;;;;;;3.60;2.23;;;2.70;99.90;;;;;;4969530;28;20224;-84
2022/01/11 07:47:30;;;;;;;7.30;4.83;;;2.60;99.90;;;;;;4972503;28;20709;-84
2022/01/11 07:49:57;;;;;;;4.30;3.90;;;2.60;99.90;;;;;;4971634;28;20224;-86
2022/01/11 07:52:23;;;;;;;6.77;5.23;;;2.60;99.90;;;;;;4988217;28;20192;-85
2022/01/11 07:54:49;;;;;;;6.33;5.87;;;2.60;99.90;;;;;;4988870;28;20274;-86
2022/01/11 07:57:14;;;;;;;19.50;5.83;;;2.60;99.90;;;;;;4972297;28;20299;-87
2022/01/11 07:59:40;;;;;;;4.07;3.80;;;2.60;99.90;;;;;;4956015;28;20212;-85
2022/01/11 08:02:06;;;;;;;7.57;4.63;;;2.60;99.90;;;;;;4956469;28;20246;-85
2022/01/11 08:04:32;;;;;;;6.67;4.47;;;2.60;99.90;;;;;;4971730;28;20228;-86
2022/01/11 08:06:59;;;;;;;3.90;3.53;;;2.70;99.90;;;;;;4971721;28;20195;-87
2022/01/11 08:09:25;;;;;;;6.80;5.00;;;2.70;99.90;;;;;;4988551;28;20302;-86
2022/01/11 08:11:51;;;;;;;2.93;2.73;;;2.70;99.90;;;;;;4972080;28;20224;-85
2022/01/11 08:14:17;;;;;;;3.23;3.03;;;2.70;99.90;;;;;;4971918;28;20636;-88
2022/01/11 08:16:43;;;;;;;4.83;4.13;;;2.70;99.90;;;;;;4956370;28;20599;-85
2022/01/11 08:19:09;;;;;;;4.80;3.63;;;2.70;99.90;;;;;;4987382;28;20203;-85
2022/01/11 08:21:35;;;;;;;2.97;2.77;;;2.70;99.90;;;;;;4988523;28;20350;-86
2022/01/11 08:24:01;;;;;;;5.70;4.20;;;2.70;99.90;;;;;;4988082;28;20274;-85
2022/01/11 08:26:27;;;;;;;3.97;3.67;;;2.70;99.90;;;;;;4984983;28;20326;-86
2022/01/11 08:28:52;;;;;;;3.50;3.10;;;2.70;99.90;;;;;;4970956;28;20358;-86
2022/01/11 08:31:20;;;;;;;4.03;3.83;;;2.70;99.90;;;;;;4955476;28;20234;-90
2022/01/11 08:33:46;;;;;;;6.57;4.83;;;2.80;99.90;;;;;;4956322;28;20203;-87
2022/01/11 08:36:12;;;;;;;4.07;3.57;;;2.80;99.90;;;;;;4972587;28;20239;-85
2022/01/11 08:38:38;;;;;;;8.13;4.33;;;2.70;99.90;;;;;;4990252;28;20648;-89
2022/01/11 08:41:07;;;;;;;5.93;4.90;;;2.80;99.90;;;;;;4971893;28;20554;-88
2022/01/11 08:43:33;;;;;;;1.50;1.40;;;2.80;99.90;;;;;;4971826;28;20184;-89
2022/01/11 08:45:59;;;;;;;5.20;3.43;;;2.80;99.90;;;;;;4988633;28;20589;-90
2022/01/11 08:48:25;;;;;;;4.43;2.63;;;2.80;99.90;;;;;;4988806;28;20247;-89
2022/01/11 08:50:53;;;;;;;7.63;5.70;;;2.80;99.90;;;;;;4956212;28;20227;-90
2022/01/11 08:53:20;;;;;;;3.93;3.13;;;2.90;99.90;;;;;;4955923;28;20248;-90
2022/01/11 08:55:50;;;;;;;6.33;3.43;;;2.80;99.90;;;;;;4971034;28;20217;-89
2022/01/11 08:58:17;;;;;;;5.43;3.03;;;2.80;99.90;;;;;;4961648;28;20196;-89
2022/01/11 09:00:43;;;;;;;3.53;3.20;;;2.90;99.90;;;;;;4979579;28;20189;-89
2022/01/11 09:03:09;;;;;;;2.77;2.57;;;2.90;99.90;;;;;;4945107;28;20234;-88
2022/01/11 09:05:35;;;;;;;4.23;3.83;;;2.90;99.90;;;;;;4962100;28;20227;-89
2022/01/11 09:08:01;;;;;;;4.70;3.03;;;2.90;99.90;;;;;;4947531;28;20223;-89
2022/01/11 09:10:27;;;;;;;4.20;3.03;;;2.90;99.90;;;;;;4944560;28;20290;-89
2022/01/11 09:12:53;;;;;;;4.03;3.13;;;2.90;99.90;;;;;;4961281;28;20319;-88
2022/01/11 09:15:19;;;;;;;5.50;4.97;;;3.00;99.90;;;;;;4946112;28;20217;-89
2022/01/11 09:17:45;;;;;;;6.50;4.87;;;3.00;99.90;;;;;;4978207;28;20247;-89
2022/01/11 09:20:13;;;;;;;4.93;4.00;;;3.00;99.90;;;;;;4946908;28;20704;-89
2022/01/11 09:22:40;;;;;;;5.57;4.97;;;2.90;99.90;;;;;;4985458;28;20239;-89
2022/01/11 09:25:07;;;;;;;4.43;3.93;;;3.00;99.90;;;;;;4976830;28;20249;-89
2022/01/11 09:27:33;;;;;;;4.63;4.07;;;3.00;99.90;;;;;;4960798;28;20303;-89
2022/01/11 09:30:00;;;;;;;4.97;4.77;;;3.00;99.90;;;;;;4961631;28;20295;-89
2022/01/11 09:32:26;;;;;;;6.27;2.63;;;3.10;99.90;;;;;;4977296;28;20216;-89
2022/01/11 09:34:52;;;;;;;2.17;2.03;;;3.00;99.90;;;;;;4961050;28;20213;-89
2022/01/11 09:37:18;;;;;;;6.23;5.43;;;3.10;99.90;;;;;;4977584;28;20183;-90
2022/01/11 09:39:44;;;;;;;3.50;3.17;;;3.00;99.90;;;;;;4961594;28;20169;-89
2022/01/11 09:42:10;;;;;;;4.23;3.90;;;3.10;99.90;;;;;;4960973;28;20218;-89
2022/01/11 09:44:38;;;;;;;1.83;1.73;;;3.10;99.90;;;;;;4984406;28;20211;-89
2022/01/11 09:47:07;;;;;;;7.07;3.07;;;3.10;99.90;;;;;;4975974;28;20286;-89
2022/01/11 09:49:33;;;;;;;6.63;4.97;;;3.20;99.90;;;;;;4977894;28;20700;-90
2022/01/11 09:52:02;;;;;;;3.57;3.23;;;3.10;99.90;;;;;;4961330;28;20192;-89
2022/01/11 09:54:27;;;;;;;4.80;3.00;;;3.10;99.90;;;;;;4961471;28;20216;-88
2022/01/11 09:56:54;;;;;;;3.83;3.07;;;3.20;99.90;;;;;;4943997;28;20816;-88
2022/01/11 09:59:19;;;;;;;5.10;4.07;;;3.10;99.90;;;;;;4961185;28;20694;-89
2022/01/11 10:01:45;;;;;;;3.13;2.90;;;3.10;99.90;;;;;;4944703;28;20228;-89
2022/01/11 10:04:13;;;;;;;4.47;2.93;;;3.10;99.90;;;;;;4961154;28;20267;-88
2022/01/11 10:06:42;;;;;;;29.00;4.40;;;3.20;99.90;;;;;;4960243;28;20312;-88
2022/01/11 10:09:09;;;;;;;4.37;3.77;;;3.30;99.90;;;;;;4975002;28;20739;-88
2022/01/11 10:11:37;;;;;;;3.60;3.07;;;3.30;99.90;;;;;;4975692;28;20216;-88
2022/01/11 10:14:37;;;;;;;17.00;6.87;;;3.30;99.90;;;;;;4976794;28;20224;-89
2022/01/11 10:17:22;;;;;;;4.90;4.50;;;3.30;99.90;;;;;;4960044;28;20727;-88
2022/01/11 10:19:51;;;;;;;4.40;4.00;;;3.30;99.90;;;;;;4975863;28;20305;-89
2022/01/11 10:22:22;;;;;;;5.27;4.70;;;3.30;99.90;;;;;;4974682;28;20204;-89
2022/01/11 10:24:50;;;;;;;3.30;2.73;;;3.40;99.90;;;;;;4961631;28;20210;-88
2022/01/11 10:27:22;;;;;;;6.57;3.57;;;3.40;99.90;;;;;;4977019;28;20220;-89
2022/01/11 10:29:58;;;;;;;5.37;3.37;;;3.50;99.90;;;;;;4985174;28;20582;-89
2022/01/11 10:32:31;;;;;;;3.97;3.67;;;3.50;99.90;;;;;;4975498;28;20251;-89
2022/01/11 10:34:59;;;;;;;3.73;3.33;;;3.50;99.90;;;;;;4977838;28;20622;-89
2022/01/11 10:37:42;;;;;;;7.60;4.97;;;3.60;99.90;;;;;;4984161;28;20201;-89
2022/01/11 10:40:35;;;;;;;7.87;5.17;;;3.70;99.90;;;;;;4978275;28;20760;-89
2022/01/11 10:43:07;;;;;;;5.83;5.07;;;3.80;99.90;;;;;;5002480;28;20212;-89
2022/01/11 10:45:35;;;;;;;4.90;4.53;;;3.70;99.90;;;;;;4986580;28;20227;-89
2022/01/11 10:48:09;;;;;;;16.50;7.57;;;3.90;99.90;;;;;;4969959;28;20228;-89
2022/01/11 10:50:47;;;;;;;11.10;5.80;;;3.90;99.90;;;;;;5002725;28;20220;-89
2022/01/11 10:53:19;;;;;;;8.13;5.10;;;4.00;99.90;;;;;;4991563;28;20219;-89
2022/01/11 10:55:59;;;;;;;9.90;3.87;;;4.10;99.90;;;;;;4992729;28;20716;-89
2022/01/11 10:58:28;;;;;;;6.70;4.03;;;4.10;99.90;;;;;;5009501;28;20610;-89
2022/01/11 11:00:55;;;;;;;8.60;4.80;;;4.10;99.90;;;;;;4993802;28;20766;-89
2022/01/11 11:03:27;;;;;;;8.80;4.03;;;4.10;99.90;;;;;;5009210;28;20245;-89
2022/01/11 11:06:05;;;;;;;5.37;4.33;;;4.10;99.90;;;;;;4992694;28;20227;-89
2022/01/11 11:08:40;;;;;;;18.53;4.50;;;4.10;99.90;;;;;;4977132;28;20223;-89
2022/01/11 11:11:09;;;;;;;7.17;3.23;;;4.10;99.90;;;;;;4992505;28;20238;-89
2022/01/11 11:13:39;;;;;;;12.57;6.20;;;4.20;99.90;;;;;;5009427;28;20230;-89
2022/01/11 11:16:16;;;;;;;3.43;3.03;;;4.20;99.90;;;;;;4993205;28;20338;-89
2022/01/11 11:18:43;;;;;;;6.17;4.10;;;4.30;99.90;;;;;;4992689;28;20215;-89
2022/01/11 11:21:22;;;;;;;8.07;4.17;;;4.30;99.90;;;;;;4992891;28;20265;-89
2022/01/11 11:23:59;;;;;;;10.13;6.27;;;4.30;99.90;;;;;;4992542;28;20215;-89
2022/01/11 11:26:29;;;;;;;12.70;6.93;;;4.30;99.90;;;;;;4993092;28;20285;-90
2022/01/11 11:28:55;;;;;;;7.17;6.43;;;4.30;99.90;;;;;;4992676;28;20222;-87
2022/01/11 11:31:21;;;;;;;7.90;6.93;;;4.40;99.90;;;;;;4992294;28;20192;-88
2022/01/11 11:33:50;;;;;;;8.37;5.17;;;4.40;99.90;;;;;;4992304;28;20667;-88
2022/01/11 11:36:17;;;;;;;5.03;3.90;;;4.40;99.90;;;;;;5009044;28;20685;-88
2022/01/11 11:38:59;;;;;;;6.37;5.63;;;4.50;99.90;;;;;;4992206;28;20219;-89
2022/01/11 11:41:27;;;;;;;7.63;6.67;;;4.50;99.90;;;;;;4992130;28;20216;-89
2022/01/11 11:44:09;;;;;;;7.00;6.30;;;4.50;99.90;;;;;;4992447;28;20204;-88
2022/01/11 11:46:55;;;;;;;9.07;7.30;;;4.50;99.90;;;;;;4992622;28;20243;-88
2022/01/11 11:49:40;;;;;;;4.37;3.97;;;4.60;99.90;;;;;;4992684;28;20239;-90
2022/01/11 11:52:26;;;;;;;3.90;3.57;;;4.60;99.90;;;;;;5009513;28;20200;-89
2022/01/11 11:54:56;;;;;;;7.90;5.07;;;4.70;99.90;;;;;;5009313;28;20289;-89
2022/01/11 11:57:25;;;;;;;9.63;4.53;;;4.70;99.90;;;;;;4992078;28;20223;-89
2022/01/11 12:00:16;;;;;;;4.50;3.43;;;4.60;99.90;;;;;;5008938;28;20242;-89
2022/01/11 12:02:45;;;;;;;6.13;5.40;;;4.60;99.90;;;;;;5008737;28;20270;-89
2022/01/11 12:05:32;;;;;;;5.40;5.00;;;4.60;99.90;;;;;;4990138;28;20648;-89
2022/01/11 12:08:19;;;;;;;7.70;5.70;;;4.70;99.90;;;;;;4990406;28;20246;-89
2022/01/11 12:10:56;;;;;;;8.77;4.60;;;4.70;99.90;;;;;;4975287;28;21229;-89
2022/01/11 12:13:51;;;;;;;3.30;3.03;;;4.80;99.90;;;;;;4990419;28;20263;-89
2022/01/11 12:16:25;;;;;;;10.03;6.17;;;4.80;99.90;;;;;;4989086;28;20271;-89
2022/01/11 12:18:55;;;;;;;8.80;4.00;;;4.90;99.90;;;;;;4989582;28;20707;-90
2022/01/11 12:21:22;;;;;;;10.70;4.80;;;4.90;99.90;;;;;;5005246;28;20219;-89
2022/01/11 12:23:53;;;;;;;5.23;3.50;;;4.90;99.90;;;;;;4965532;28;20212;-88
2022/01/11 12:26:23;;;;;;;7.30;6.60;;;5.00;99.90;;;;;;4988284;28;20613;-88
2022/01/11 12:29:08;;;;;;;7.37;5.37;;;5.00;99.90;;;;;;4988921;28;20698;-89
2022/01/11 12:31:35;;;;;;;3.03;2.63;;;5.10;99.90;;;;;;5004455;28;20200;-89
2022/01/11 12:34:02;;;;;;;8.67;3.03;;;5.10;99.90;;;;;;5005985;28;20188;-89
2022/01/11 12:36:53;;;;;;;4.57;2.90;;;5.20;99.90;;;;;;4989071;28;20626;-89
2022/01/11 12:39:21;;;;;;;4.23;3.93;;;5.20;99.90;;;;;;4972319;28;20220;-89
2022/01/11 12:41:50;;;;;;;6.10;2.37;;;5.20;99.90;;;;;;4988818;28;20283;-90
2022/01/11 12:44:32;;;;;;;4.57;3.30;;;5.20;99.90;;;;;;4988744;28;20215;-90
2022/01/11 12:47:02;;;;;;;11.37;4.13;;;5.30;99.90;;;;;;4989055;28;20251;-90
2022/01/11 12:49:29;;;;;;;9.17;4.30;;;5.30;99.90;;;;;;4988122;28;20254;-90
2022/01/11 12:52:08;;;;;;;5.37;5.07;;;5.40;99.90;;;;;;5005527;28;20246;-90
2022/01/11 12:54:38;;;;;;;4.43;4.13;;;5.40;99.90;;;;;;4973992;28;20216;-90
2022/01/11 12:57:28;;;;;;;5.13;3.37;;;5.40;99.90;;;;;;5004135;28;20246;-90
2022/01/11 12:59:57;;;;;;;6.67;3.77;;;5.50;99.90;;;;;;5004720;28;20227;-90